createdAt,value
2018-11-20T00:02:32.078Z,33.00
2018-11-20T00:07:32.746Z,34.43
2018-11-20T00:20:07.204Z,32.65
2018-11-20T00:22:37.253Z,33.45
2018-11-20T00:25:07.837Z,32.15
2018-11-20T00:30:12.937Z,34.38
2018-11-20T00:35:14.307Z,33.95
2018-11-20T00:42:46.084Z,37.08
2018-11-20T00:45:16.002Z,34.05
2018-11-20T00:50:21.536Z,32.98
2018-11-20T01:10:32.868Z,31.33
2018-11-20T01:15:34.261Z,34.83
2018-11-20T01:20:35.010Z,31.82
2018-11-20T01:40:45.818Z,30.85
2018-11-20T01:45:46.965Z,30.80
2018-11-20T01:50:47.978Z,33.08
2018-11-20T02:00:51.793Z,31.62
2018-11-20T02:03:21.950Z,33.55
2018-11-20T02:18:22.460Z,32.63
2018-11-20T02:28:26.263Z,32.98
2018-11-20T02:35:57.900Z,33.85
2018-11-20T02:40:59.126Z,31.68
2018-11-20T02:46:02.208Z,35.95
2018-11-20T02:48:32.151Z,35.45
2018-11-20T02:53:31.166Z,34.80
2018-11-20T03:01:10.091Z,31.97
2018-11-20T03:06:11.086Z,33.95
2018-11-20T03:08:41.287Z,34.33
2018-11-20T03:16:13.863Z,35.70
2018-11-20T03:18:44.048Z,31.97
2018-11-20T03:23:48.495Z,35.78
2018-11-20T03:28:46.627Z,33.70
2018-11-20T03:36:18.515Z,32.38
2018-11-20T03:43:50.171Z,30.35
2018-11-20T03:49:29.726Z,34.20
2018-11-20T03:52:20.107Z,32.23
2018-11-20T03:57:20.981Z,34.33
2018-11-20T04:02:21.655Z,33.63
2018-11-20T04:09:54.200Z,34.88
2018-11-20T04:14:55.526Z,32.58
2018-11-20T04:19:56.194Z,36.33
2018-11-20T04:24:57.077Z,35.15
2018-11-20T04:29:58.681Z,34.98
2018-11-20T04:34:59.510Z,34.83
2018-11-20T04:40:02.172Z,32.73
2018-11-20T04:47:45.731Z,33.25
2018-11-20T04:50:15.663Z,32.48
2018-11-20T04:55:16.272Z,33.20
2018-11-20T05:05:25.868Z,33.88
2018-11-20T05:10:27.005Z,32.75
2018-11-20T05:12:57.467Z,33.15
2018-11-20T05:20:32.535Z,32.50
2018-11-20T05:23:02.919Z,33.88
2018-11-20T05:28:02.322Z,36.53
2018-11-20T05:35:30.445Z,34.25
2018-11-20T05:40:29.222Z,33.13
2018-11-20T05:45:26.582Z,31.68
2018-11-20T05:52:51.903Z,30.27
2018-11-20T05:57:49.038Z,32.05
2018-11-20T06:07:45.493Z,32.28
2018-11-20T06:17:45.042Z,33.98
2018-11-20T06:25:12.409Z,34.03
2018-11-20T06:30:09.884Z,34.18
2018-11-20T06:40:05.522Z,35.30
2018-11-20T06:47:36.667Z,36.85
2018-11-20T07:00:02.585Z,37.03
2018-11-20T07:05:01.228Z,39.78
2018-11-20T07:10:00.023Z,38.00
2018-11-20T07:12:30.494Z,43.40
2018-11-20T07:17:29.132Z,44.40
2018-11-20T07:22:27.921Z,42.05
2018-11-20T07:27:25.294Z,42.38
2018-11-20T07:32:22.999Z,35.13
2018-11-20T07:39:49.113Z,41.28
2018-11-20T07:47:16.755Z,35.60
2018-11-20T07:54:47.603Z,36.73
2018-11-20T08:02:13.901Z,38.02
2018-11-20T08:04:42.224Z,33.75
2018-11-20T08:12:10.520Z,40.15
2018-11-20T08:17:07.674Z,41.58
2018-11-20T08:24:32.021Z,34.83
2018-11-20T08:24:34.482Z,36.00
2018-11-20T08:29:33.878Z,36.83
2018-11-20T08:34:28.940Z,34.35
2018-11-20T08:36:58.798Z,33.10
2018-11-20T08:44:26.355Z,35.20
2018-11-20T08:51:53.816Z,39.78
2018-11-20T09:04:15.631Z,31.55
2018-11-20T09:14:09.015Z,31.93
2018-11-20T09:19:09.183Z,31.48
2018-11-20T09:26:35.097Z,27.62
2018-11-20T09:39:12.739Z,36.08
2018-11-20T09:51:35.930Z,29.32
2018-11-20T09:56:36.393Z,27.60
2018-11-20T10:21:23.319Z,29.15
2018-11-20T10:33:54.591Z,26.02
2018-11-20T10:48:47.207Z,26.82
2018-11-20T10:53:46.208Z,26.52
2018-11-20T10:56:15.907Z,22.73
2018-11-20T11:03:42.323Z,25.02
2018-11-20T11:08:41.534Z,24.02
2018-11-20T11:11:11.462Z,23.07
2018-11-20T11:18:40.976Z,24.47
2018-11-20T11:28:35.510Z,23.65
2018-11-20T11:31:05.790Z,22.60
2018-11-20T11:38:31.792Z,24.40
2018-11-20T11:43:31.263Z,26.25
2018-11-20T11:55:56.191Z,27.00
2018-11-20T12:06:22.743Z,24.85
2018-11-20T12:13:50.869Z,26.40
2018-11-20T12:16:20.718Z,25.62
2018-11-20T12:23:48.350Z,24.07
2018-11-20T12:26:19.394Z,26.75
2018-11-20T12:31:19.964Z,23.22
2018-11-20T12:33:48.654Z,26.17
2018-11-20T12:38:47.656Z,21.25
2018-11-20T12:44:50.170Z,23.87
2018-11-20T12:47:43.879Z,23.00
2018-11-20T12:50:37.197Z,25.05
2018-11-20T12:53:31.777Z,25.20
2018-11-20T12:56:16.817Z,27.77
2018-11-20T12:59:04.506Z,23.83
2018-11-20T13:01:55.073Z,25.90
2018-11-20T13:04:40.383Z,27.07
2018-11-20T13:07:30.171Z,22.22
2018-11-20T13:10:20.932Z,24.80
2018-11-20T13:13:19.709Z,22.07
2018-11-20T13:16:10.170Z,22.10
2018-11-20T13:18:58.008Z,20.80
2018-11-20T13:21:53.882Z,21.60
2018-11-20T13:24:44.467Z,21.55
2018-11-20T13:27:38.040Z,23.65
2018-11-20T13:30:36.647Z,20.10
2018-11-20T13:33:25.691Z,21.82
2018-11-20T13:36:11.521Z,22.95
2018-11-20T13:38:52.078Z,24.77
2018-11-20T13:41:51.963Z,23.57
2018-11-20T13:44:29.652Z,21.42
2018-11-20T13:47:29.316Z,23.52
2018-11-20T13:50:19.224Z,22.13
2018-11-20T13:53:25.104Z,23.60
2018-11-20T13:56:04.356Z,24.35
2018-11-20T13:59:10.701Z,23.73
2018-11-20T14:02:07.688Z,22.95
2018-11-20T14:05:07.455Z,22.75
2018-11-20T14:07:55.376Z,24.00
2018-11-20T14:10:40.717Z,25.27
2018-11-20T14:13:37.516Z,21.90
2018-11-20T14:16:49.738Z,21.73
2018-11-20T14:19:46.420Z,22.48
2018-11-20T14:22:49.291Z,26.35
2018-11-20T14:25:45.227Z,23.07
2018-11-20T14:28:31.660Z,23.40
2018-11-20T14:31:28.259Z,25.85
2018-11-20T14:34:06.626Z,21.20
2018-11-20T14:37:15.853Z,20.40
2018-11-20T14:40:05.534Z,22.55
2018-11-20T14:42:42.952Z,21.60
2018-11-20T14:45:29.332Z,29.37
2018-11-20T14:48:22.717Z,25.55
2018-11-20T14:51:16.342Z,30.48
2018-11-20T14:53:56.659Z,23.20
2018-11-20T14:56:31.164Z,23.18
2018-11-20T14:59:18.602Z,23.67
2018-11-20T15:02:02.642Z,24.47
2018-11-20T15:04:49.532Z,23.77
2018-11-20T15:07:50.882Z,23.83
2018-11-20T15:10:38.431Z,23.20
2018-11-20T15:13:24.650Z,27.35
2018-11-20T15:16:22.644Z,24.67
2018-11-20T15:19:08.398Z,22.75
2018-11-20T15:22:01.813Z,25.43
2018-11-20T15:24:49.636Z,26.25
2018-11-20T15:28:05.187Z,32.10
2018-11-20T15:30:56.109Z,30.70
2018-11-20T15:33:43.959Z,27.98
2018-11-20T15:36:31.077Z,30.68
2018-11-20T15:39:12.768Z,27.80
2018-11-20T15:42:09.466Z,28.80
2018-11-20T15:44:59.963Z,27.40
2018-11-20T15:47:57.095Z,29.82
2018-11-20T15:50:52.751Z,27.65
2018-11-20T15:53:43.979Z,26.42
2018-11-20T15:56:43.766Z,28.38
2018-11-20T16:02:59.926Z,29.50
2018-11-20T16:05:47.729Z,30.37
2018-11-20T16:08:41.663Z,33.73
2018-11-20T16:11:38.859Z,30.75
2018-11-20T16:14:29.272Z,33.63
2018-11-20T16:17:17.297Z,33.73
2018-11-20T16:19:58.597Z,32.35
2018-11-20T16:22:45.661Z,33.70
2018-11-20T16:25:39.575Z,36.20
2018-11-20T16:28:30.519Z,31.90
2018-11-20T16:31:33.801Z,35.48
2018-11-20T16:34:20.220Z,38.95
2018-11-20T16:37:11.391Z,38.90
2018-11-20T16:40:00.655Z,35.88
2018-11-20T16:42:47.270Z,34.80
2018-11-20T16:45:42.835Z,44.00
2018-11-20T16:48:39.298Z,41.83
2018-11-20T16:51:27.115Z,43.02
2018-11-20T16:54:15.216Z,40.23
2018-11-20T16:57:01.815Z,41.60
2018-11-20T16:59:58.897Z,36.98
2018-11-20T17:03:25.561Z,33.85
2018-11-20T17:06:19.538Z,34.88
2018-11-20T17:09:06.304Z,30.32
2018-11-20T17:12:05.204Z,37.93
2018-11-20T17:14:51.569Z,45.30
2018-11-20T17:17:45.397Z,39.95
2018-11-20T17:20:38.946Z,39.05
2018-11-20T17:23:29.832Z,37.63
2018-11-20T17:26:29.330Z,39.63
2018-11-20T17:29:23.843Z,42.15
2018-11-20T17:32:30.139Z,40.43
2018-11-20T17:39:15.666Z,46.83
2018-11-20T17:42:21.381Z,45.67
2018-11-20T17:45:04.449Z,39.73
2018-11-20T17:47:48.022Z,37.63
2018-11-20T17:50:38.854Z,45.60
2018-11-20T17:53:23.764Z,41.95
2018-11-20T17:56:29.878Z,40.40
2018-11-20T17:59:16.571Z,42.10
2018-11-20T18:02:04.631Z,48.40
2018-11-20T18:04:52.458Z,41.65
2018-11-20T18:07:56.086Z,52.95
2018-11-20T18:10:42.617Z,46.10
2018-11-20T18:13:18.772Z,54.38
2018-11-20T18:16:05.197Z,52.70
2018-11-20T18:18:44.832Z,58.80
2018-11-20T18:21:30.866Z,60.60
2018-11-20T18:24:23.291Z,62.93
2018-11-20T18:27:18.994Z,57.58
2018-11-20T18:30:04.710Z,63.95
2018-11-20T18:32:58.444Z,63.83
2018-11-20T18:35:49.161Z,62.83
2018-11-20T18:38:35.780Z,71.77
2018-11-20T18:41:35.966Z,55.05
2018-11-20T18:44:23.956Z,72.82
2018-11-20T18:47:14.163Z,65.78
2018-11-20T18:50:10.860Z,64.35
2018-11-20T18:53:00.417Z,63.83
2018-11-20T18:55:47.079Z,70.50
2018-11-20T18:58:34.990Z,78.02
2018-11-20T19:01:21.245Z,81.80
2018-11-20T19:04:03.148Z,76.87
2018-11-20T19:06:49.628Z,73.65
2018-11-20T19:09:36.339Z,75.47
2018-11-20T19:12:23.059Z,77.62
2018-11-20T19:15:10.674Z,76.50
2018-11-20T19:18:01.642Z,91.10
2018-11-20T19:20:51.193Z,104.78
2018-11-20T19:23:54.669Z,91.20
2018-11-20T19:26:42.286Z,87.75
2018-11-20T19:29:28.555Z,96.05
2018-11-20T19:32:14.177Z,94.20
2018-11-20T19:35:02.013Z,85.20
2018-11-20T19:38:04.726Z,84.83
2018-11-20T19:40:51.390Z,84.13
2018-11-20T19:43:57.190Z,95.42
2018-11-20T19:46:45.037Z,88.00
2018-11-20T19:49:27.199Z,74.40
2018-11-20T19:52:09.912Z,78.70
2018-11-20T19:55:09.782Z,72.92
2018-11-20T19:58:05.862Z,76.77
2018-11-20T20:00:55.126Z,72.72
2018-11-20T20:03:47.588Z,73.57
2018-11-20T20:06:34.107Z,70.22
2018-11-20T20:09:36.887Z,71.35
2018-11-20T20:12:41.313Z,76.53
2018-11-20T20:15:27.186Z,66.95
2018-11-20T20:18:04.968Z,75.20
2018-11-20T20:21:10.768Z,78.10
2018-11-20T20:23:58.621Z,80.90
2018-11-20T20:26:46.484Z,77.32
2018-11-20T20:29:33.302Z,66.87
2018-11-20T20:32:30.156Z,68.55
2018-11-20T20:35:16.660Z,71.12
2018-11-20T20:38:16.414Z,79.15
2018-11-20T20:41:02.892Z,83.40
2018-11-20T20:43:53.796Z,73.07
2018-11-20T20:46:44.129Z,87.82
2018-11-20T20:49:25.162Z,83.12
2018-11-20T20:52:14.507Z,88.80
2018-11-20T20:55:14.369Z,82.85
2018-11-20T20:58:19.414Z,83.70
2018-11-20T21:01:19.349Z,80.05
2018-11-20T21:04:07.724Z,86.92
2018-11-20T21:07:01.424Z,96.28
2018-11-20T21:09:58.126Z,92.45
2018-11-20T21:12:55.097Z,113.05
2018-11-20T21:15:49.240Z,98.85
2018-11-20T21:18:38.554Z,92.15
2018-11-20T21:21:31.253Z,106.97
2018-11-20T21:24:16.382Z,97.22
2018-11-20T21:27:08.928Z,89.20
2018-11-20T21:29:55.189Z,121.40
2018-11-20T21:32:42.978Z,128.07
2018-11-20T21:35:46.806Z,112.22
2018-11-20T21:38:26.183Z,96.37
2018-11-20T21:41:28.939Z,100.07
2018-11-20T21:44:16.854Z,124.60
2018-11-20T21:46:54.695Z,103.22
2018-11-20T21:50:03.293Z,106.83
2018-11-20T21:53:00.060Z,118.90
2018-11-20T21:55:50.742Z,140.05
2018-11-20T21:58:41.637Z,127.30
2018-11-20T22:01:28.328Z,112.85
2018-11-20T22:04:19.205Z,102.80
2018-11-20T22:07:06.328Z,124.70
2018-11-20T22:10:09.052Z,113.52
2018-11-20T22:12:56.093Z,115.20
2018-11-20T22:15:43.830Z,115.10
2018-11-20T22:18:52.546Z,119.87
2018-11-20T22:21:36.132Z,125.35
2018-11-20T22:24:30.180Z,123.40
2018-11-20T22:27:21.711Z,113.72
2018-11-20T22:30:17.182Z,110.20
2018-11-20T22:33:05.135Z,112.70
2018-11-20T22:36:09.719Z,102.12
2018-11-20T22:38:56.249Z,115.80
2018-11-20T22:41:52.864Z,119.22
2018-11-20T22:44:46.421Z,110.20
2018-11-20T22:47:40.037Z,102.35
2018-11-20T22:50:26.707Z,111.47
2018-11-20T22:53:14.168Z,95.22
2018-11-20T22:56:02.061Z,93.92
2018-11-20T22:58:54.023Z,96.30
2018-11-20T23:01:44.620Z,93.10
2018-11-20T23:04:31.925Z,90.95
2018-11-20T23:07:21.523Z,115.55
2018-11-20T23:09:48.612Z,110.70
2018-11-20T23:12:21.055Z,121.80
2018-11-20T23:14:49.864Z,118.77
2018-11-20T23:17:24.767Z,116.45
2018-11-20T23:19:53.550Z,117.77
2018-11-20T23:22:22.372Z,122.10
2018-11-20T23:24:51.453Z,117.03
2018-11-20T23:27:20.162Z,125.82
2018-11-20T23:29:48.984Z,108.05
2018-11-20T23:32:20.810Z,119.02
2018-11-20T23:34:49.697Z,134.90
2018-11-20T23:37:18.429Z,134.90
2018-11-20T23:39:53.887Z,139.55
2018-11-20T23:42:24.093Z,130.20
2018-11-20T23:44:51.517Z,119.75
2018-11-20T23:47:20.342Z,116.50
2018-11-20T23:49:55.107Z,111.88
2018-11-20T23:52:23.852Z,136.62
2018-11-20T23:54:53.614Z,149.25
2018-11-20T23:57:21.718Z,134.63
2018-11-20T23:59:50.516Z,103.72
